This is the latest recevied weather packets stored in our database for station/object K7RAP. If no packets are shown the sender has not sent any weather packets the latest 10 day(s).
| Time | Temp. | Humidity | Pressure | Rain* | Wind** | Luminosity | Snow |
|---|---|---|---|---|---|---|---|
| 1777617005 | 13.33° C | 81% | 1014.6 hPa | - | - | - | - |
| 1777616403 | 13.33° C | 81% | 1014.6 hPa | - | - | - | - |
| 1777615803 | 13.33° C | 80% | 1014.6 hPa | - | - | - | - |
| 1777615204 | 13.89° C | 79% | 1014.6 hPa | - | - | - | - |
| 1777614604 | 13.89° C | 79% | 1014.6 hPa | - | - | - | - |
| 1777614004 | 14.44° C | 77% | 1014.6 hPa | - | - | - | - |
| 1777613403 | 14.44° C | 77% | 1014.6 hPa | - | - | - | - |
| 1777612803 | 14.44° C | 77% | 1014.6 hPa | - | - | - | - |
| 1777612204 | 15° C | 76% | 1014.2 hPa | - | - | - | - |
| 1777611604 | 15° C | 76% | 1014.2 hPa | - | - | - | - |
| 1777611009 | 15.56° C | 74% | 1014.2 hPa | - | - | - | - |
| 1777610404 | 16.11° C | 73% | 1014.2 hPa | - | - | - | - |
| 1777609803 | 16.67° C | 72% | 1013.9 hPa | - | - | - | - |
| 1777609204 | 16.67° C | 72% | 1013.9 hPa | - | - | - | - |
| 1777608604 | 17.22° C | 69% | 1013.5 hPa | - | - | - | - |
| 1777608005 | 18.33° C | 66% | 1013.5 hPa | - | - | - | - |
| 1777607404 | 18.33° C | 66% | 1013.5 hPa | - | - | - | - |
| 1777606804 | 18.89° C | 64% | 1013.5 hPa | - | - | - | - |
| 1777606204 | 20° C | 62% | 1013.5 hPa | - | - | - | - |
| 1777605603 | 20° C | 62% | 1013.5 hPa | - | - | - | - |
| 1777605003 | 20.56° C | 59% | 1013.2 hPa | - | - | - | - |
| 1777604404 | 21.67° C | 55% | 1012.9 hPa | - | - | - | - |
| 1777603804 | 21.67° C | 55% | 1012.9 hPa | - | - | - | - |
| 1777603203 | 22.22° C | 50% | 1012.9 hPa | - | - | - | - |
| 1777602603 | 22.78° C | 45% | 1012.9 hPa | - | - | - | - |
* Rain since midnight (hover to see other rain measurements)
** Current wind speed in m/s (hover to see current wind gust speed)